createdAt,value
2018-05-02T00:00:56.892Z,88.17
2018-05-02T00:01:57.100Z,88.54
2018-05-02T00:02:57.336Z,88.35
2018-05-02T00:03:57.571Z,88.07
2018-05-02T00:04:57.805Z,88.17
2018-05-02T00:05:58.043Z,88.35
2018-05-02T00:06:58.266Z,88.26
2018-05-02T00:07:58.497Z,88.45
2018-05-02T00:08:58.720Z,88.54
2018-05-02T00:09:58.957Z,88.35
2018-05-02T00:10:59.192Z,88.73
2018-05-02T00:11:59.424Z,88.45
2018-05-02T00:12:59.678Z,88.73
2018-05-02T00:13:59.888Z,88.17
2018-05-02T00:15:00.100Z,88.82
2018-05-02T00:16:00.360Z,89.01
2018-05-02T00:17:00.570Z,88.54
2018-05-02T00:18:00.807Z,88.35
2018-05-02T00:19:01.040Z,88.54
2018-05-02T00:20:01.277Z,89.11
2018-05-02T00:21:01.504Z,88.82
2018-05-02T00:22:01.743Z,89.68
2018-05-02T00:23:01.954Z,89.87
2018-05-02T00:24:02.207Z,89.20
2018-05-02T00:25:02.448Z,89.87
2018-05-02T00:26:02.681Z,89.58
2018-05-02T00:27:02.911Z,89.30
2018-05-02T00:28:03.156Z,89.68
2018-05-02T00:29:03.392Z,89.77
2018-05-02T00:30:03.645Z,89.87
2018-05-02T00:31:03.848Z,89.87
2018-05-02T00:32:04.091Z,90.06
2018-05-02T00:33:04.328Z,89.68
2018-05-02T00:34:04.566Z,89.77
2018-05-02T00:35:04.786Z,90.15
2018-05-02T00:36:05.011Z,89.96
2018-05-02T00:37:05.252Z,89.68
2018-05-02T00:38:05.484Z,90.06
2018-05-02T00:39:05.697Z,90.34
2018-05-02T00:40:05.933Z,90.06
2018-05-02T00:41:06.174Z,89.68
2018-05-02T00:42:06.409Z,90.25
2018-05-02T00:43:06.636Z,90.72
2018-05-02T00:44:06.868Z,90.34
2018-05-02T00:45:07.106Z,90.81
2018-05-02T00:46:07.343Z,90.34
2018-05-02T00:47:07.583Z,90.63
2018-05-02T00:48:07.809Z,90.30
2018-05-02T00:49:08.044Z,90.58
2018-05-02T00:50:08.286Z,90.96
2018-05-02T00:51:08.522Z,90.20
2018-05-02T00:52:08.737Z,90.39
2018-05-02T00:53:08.973Z,90.96
2018-05-02T00:54:09.207Z,90.86
2018-05-02T00:55:09.453Z,91.53
2018-05-02T00:56:09.662Z,91.91
2018-05-02T00:57:09.891Z,92.47
2018-05-02T00:58:10.108Z,92.66
2018-05-02T00:59:10.338Z,92.52
2018-05-02T01:00:10.584Z,92.85
2018-05-02T01:01:10.821Z,93.13
2018-05-02T01:02:11.041Z,93.37
2018-05-02T01:03:11.277Z,93.37
2018-05-02T01:04:11.479Z,93.09
2018-05-02T01:05:11.710Z,93.94
2018-05-02T01:06:11.960Z,94.56
2018-05-02T01:07:12.178Z,94.46
2018-05-02T01:08:12.417Z,94.56
2018-05-02T01:09:12.636Z,94.74
2018-05-02T01:10:12.867Z,93.13
2018-05-02T01:11:13.100Z,92.94
2018-05-02T01:12:13.332Z,92.90
2018-05-02T01:13:13.594Z,92.47
2018-05-02T01:14:13.800Z,91.43
2018-05-02T01:15:14.015Z,91.05
2018-05-02T01:16:14.273Z,90.96
2018-05-02T01:17:14.480Z,91.43
2018-05-02T01:18:14.701Z,91.72
2018-05-02T01:19:14.966Z,92.19
2018-05-02T01:20:15.165Z,92.57
2018-05-02T01:21:15.419Z,92.94
2018-05-02T01:22:15.624Z,92.80
2018-05-02T01:23:15.867Z,93.28
2018-05-02T01:24:16.097Z,93.66
2018-05-02T01:25:16.328Z,93.28
2018-05-02T01:26:16.566Z,94.32
2018-05-02T01:27:16.783Z,94.32
2018-05-02T01:28:17.009Z,94.42
2018-05-02T01:29:17.245Z,94.42
2018-05-02T01:30:17.479Z,94.42
2018-05-02T01:31:17.732Z,94.32
2018-05-02T01:32:17.942Z,94.79
2018-05-02T01:33:18.172Z,95.17
2018-05-02T01:34:18.411Z,95.17
2018-05-02T01:35:18.642Z,95.26
2018-05-02T01:36:18.873Z,95.36
2018-05-02T01:37:19.097Z,96.31
2018-05-02T01:38:19.331Z,95.93
2018-05-02T01:39:19.557Z,95.83
2018-05-02T01:40:19.785Z,95.83
2018-05-02T01:41:20.032Z,96.31
2018-05-02T01:42:20.242Z,97.25
2018-05-02T01:43:20.468Z,97.91
2018-05-02T01:44:20.711Z,97.63
2018-05-02T01:45:20.937Z,97.44
2018-05-02T01:46:21.166Z,97.63
2018-05-02T01:47:21.398Z,96.97
2018-05-02T01:48:21.633Z,97.44
2018-05-02T01:49:21.857Z,97.44
2018-05-02T01:50:22.104Z,97.25
2018-05-02T01:51:22.327Z,97.16
2018-05-02T01:52:22.543Z,97.53
2018-05-02T01:53:22.770Z,97.06
2018-05-02T01:54:23.000Z,96.69
2018-05-02T01:55:23.222Z,96.50
2018-05-02T01:56:23.454Z,95.93
2018-05-02T01:57:23.686Z,96.12
2018-05-02T01:58:23.911Z,96.21
2018-05-02T01:59:24.133Z,96.31
2018-05-02T02:00:24.358Z,97.44
2018-05-02T02:01:24.598Z,97.82
2018-05-02T02:02:24.820Z,98.77
2018-05-02T02:03:25.076Z,98.77
2018-05-02T02:04:25.381Z,98.77
2018-05-02T02:05:25.509Z,97.16
2018-05-02T02:06:25.740Z,96.88
2018-05-02T02:07:25.987Z,97.25
2018-05-02T02:08:26.203Z,96.88
2018-05-02T02:09:26.414Z,97.34
2018-05-02T02:10:26.633Z,97.53
2018-05-02T02:11:26.872Z,96.78
2018-05-02T02:12:27.113Z,96.50
2018-05-02T02:13:27.354Z,96.40
2018-05-02T02:14:27.564Z,96.97
2018-05-02T02:15:27.801Z,96.88
2018-05-02T02:16:36.807Z,96.69
2018-05-02T02:17:28.325Z,96.97
2018-05-02T02:18:28.550Z,95.93
2018-05-02T02:19:28.769Z,95.64
2018-05-02T02:20:29.013Z,95.64
2018-05-02T02:21:29.229Z,95.93
2018-05-02T02:22:29.465Z,96.59
2018-05-02T02:23:29.695Z,96.50
2018-05-02T02:24:29.940Z,97.25
2018-05-02T02:25:30.162Z,97.63
2018-05-02T02:26:30.387Z,98.10
2018-05-02T02:27:30.607Z,98.01
2018-05-02T02:28:30.847Z,98.20
2018-05-02T02:29:31.080Z,98.20
2018-05-02T02:30:31.318Z,98.86
2018-05-02T02:31:31.552Z,98.86
2018-05-02T02:32:31.779Z,98.48
2018-05-02T02:33:32.026Z,98.77
2018-05-02T02:34:32.240Z,99.15
2018-05-02T02:35:32.469Z,98.48
2018-05-02T02:36:32.697Z,98.58
2018-05-02T02:37:32.939Z,98.48
2018-05-02T02:38:33.176Z,98.58
2018-05-02T02:39:33.414Z,98.29
2018-05-02T02:40:33.624Z,98.33
2018-05-02T02:41:33.851Z,98.10
2018-05-02T02:42:34.088Z,98.58
2018-05-02T02:43:34.317Z,98.05
2018-05-02T02:44:34.555Z,98.05
2018-05-02T02:45:34.782Z,98.77
2018-05-02T02:46:35.012Z,99.33
2018-05-02T02:47:35.256Z,99.24
2018-05-02T02:48:35.491Z,99.24
2018-05-02T02:49:35.712Z,99.33
2018-05-02T02:50:35.958Z,99.24
2018-05-02T02:51:36.198Z,99.33
2018-05-02T02:52:36.414Z,98.58
2018-05-02T02:53:36.663Z,98.48
2018-05-02T02:54:36.845Z,98.29
2018-05-02T02:55:37.090Z,98.67
2018-05-02T02:56:37.353Z,98.48
2018-05-02T02:57:37.545Z,98.58
2018-05-02T02:58:37.782Z,97.72
2018-05-02T02:59:38.030Z,97.63
2018-05-02T03:00:38.257Z,97.34
2018-05-02T03:01:47.142Z,96.78
2018-05-02T03:02:38.876Z,96.40
2018-05-02T03:03:39.081Z,96.12
2018-05-02T03:04:39.326Z,96.31
2018-05-02T03:05:39.573Z,96.12
2018-05-02T03:06:39.781Z,96.50
2018-05-02T03:07:40.014Z,96.40
2018-05-02T03:08:40.287Z,96.40
2018-05-02T03:09:40.484Z,96.59
2018-05-02T03:10:40.811Z,96.69
2018-05-02T03:11:40.941Z,96.40
2018-05-02T03:12:41.175Z,96.59
2018-05-02T03:13:50.039Z,96.69
2018-05-02T03:14:41.810Z,96.50
2018-05-02T03:15:42.060Z,96.69
2018-05-02T03:16:50.897Z,96.88
2018-05-02T03:17:42.617Z,97.06
2018-05-02T03:18:42.886Z,97.25
2018-05-02T03:19:43.087Z,96.69
2018-05-02T03:20:43.315Z,96.21
2018-05-02T03:21:43.578Z,96.31
2018-05-02T03:22:43.776Z,96.40
2018-05-02T03:23:44.003Z,96.40
2018-05-02T03:24:44.250Z,97.25
2018-05-02T03:25:53.118Z,97.44
2018-05-02T03:26:44.852Z,97.25
2018-05-02T03:27:53.748Z,97.53
2018-05-02T03:28:45.478Z,97.16
2018-05-02T03:29:54.356Z,97.16
2018-05-02T03:30:54.731Z,97.25
2018-05-02T03:31:46.455Z,97.20
2018-05-02T03:32:55.347Z,97.20
2018-05-02T03:33:55.782Z,97.77
2018-05-02T03:34:56.124Z,97.77
2018-05-02T03:35:56.460Z,98.05
2018-05-02T03:36:48.192Z,98.33
2018-05-02T03:37:48.427Z,98.33
2018-05-02T03:38:48.699Z,98.90
2018-05-02T03:39:57.547Z,98.33
2018-05-02T03:40:57.902Z,98.52
2018-05-02T03:41:58.313Z,99.00
2018-05-02T03:42:50.005Z,98.43
2018-05-02T03:44:00.554Z,98.71
2018-05-02T03:44:59.099Z,98.71
2018-05-02T03:45:59.541Z,99.00
2018-05-02T03:46:59.948Z,99.38
2018-05-02T03:48:00.290Z,98.90
2018-05-02T03:49:00.697Z,99.19
2018-05-02T03:50:01.122Z,99.47
2018-05-02T03:51:01.486Z,98.81
2018-05-02T03:52:01.886Z,99.38
2018-05-02T03:53:02.327Z,99.28
2018-05-02T03:54:02.618Z,99.38
2018-05-02T03:55:03.023Z,99.76
2018-05-02T03:56:03.433Z,99.62
2018-05-02T03:57:04.838Z,99.99
2018-05-02T03:58:04.004Z,99.80
2018-05-02T03:59:04.394Z,99.80
2018-05-02T04:00:04.750Z,99.62
2018-05-02T04:01:05.186Z,99.43
2018-05-02T04:02:05.545Z,99.52
2018-05-02T04:03:06.011Z,99.62
2018-05-02T04:04:06.392Z,99.62
2018-05-02T04:05:06.763Z,99.24
2018-05-02T04:06:07.190Z,99.28
2018-05-02T04:07:07.519Z,98.62
2018-05-02T04:08:07.996Z,98.43
2018-05-02T04:09:08.302Z,98.52
2018-05-02T04:10:08.715Z,98.43
2018-05-02T04:11:09.074Z,98.43
2018-05-02T04:12:09.547Z,98.33
2018-05-02T04:13:09.849Z,98.33
2018-05-02T04:14:10.459Z,98.71
2018-05-02T04:15:10.476Z,98.14
2018-05-02T04:16:10.907Z,98.24
2018-05-02T04:17:11.274Z,98.71
2018-05-02T04:18:02.954Z,98.71
2018-05-02T04:19:11.850Z,98.33
2018-05-02T04:20:12.202Z,99.47
2018-05-02T04:21:12.578Z,99.80
2018-05-02T04:22:11.960Z,99.71
2018-05-02T04:23:13.275Z,99.71
2018-05-02T04:24:05.004Z,99.99
2018-05-02T04:25:05.238Z,99.71
2018-05-02T04:26:05.553Z,99.62
2018-05-02T04:27:05.955Z,99.99
2018-05-02T04:28:06.098Z,98.96
2018-05-02T04:29:14.951Z,99.43
2018-05-02T04:30:06.690Z,98.77
2018-05-02T04:31:06.919Z,98.86
2018-05-02T04:32:07.152Z,98.29
2018-05-02T04:33:07.381Z,98.58
2018-05-02T04:34:07.659Z,98.39
2018-05-02T04:35:07.880Z,98.29
2018-05-02T04:36:08.115Z,98.10
2018-05-02T04:37:16.971Z,98.06
2018-05-02T04:38:08.741Z,97.58
2018-05-02T04:39:08.953Z,97.68
2018-05-02T04:40:09.187Z,97.87
2018-05-02T04:41:09.450Z,97.87
2018-05-02T04:42:09.650Z,97.87
2018-05-02T04:43:17.546Z,97.58
2018-05-02T04:44:10.230Z,97.49
2018-05-02T04:45:10.434Z,97.58
2018-05-02T04:46:10.678Z,97.68
2018-05-02T04:47:10.911Z,97.20
2018-05-02T04:48:11.143Z,97.39
2018-05-02T04:49:20.005Z,96.64
2018-05-02T04:50:11.753Z,96.45
2018-05-02T04:51:11.986Z,96.45
2018-05-02T04:52:12.278Z,95.69
2018-05-02T04:53:12.522Z,95.50
2018-05-02T04:54:12.679Z,95.78
2018-05-02T04:55:12.911Z,95.03
2018-05-02T04:56:13.179Z,96.12
2018-05-02T04:57:13.415Z,95.45
2018-05-02T04:58:13.617Z,95.26
2018-05-02T04:59:13.865Z,95.26
2018-05-02T05:00:14.090Z,95.07
2018-05-02T05:01:14.331Z,95.07
2018-05-02T05:02:14.583Z,94.51
2018-05-02T05:03:14.832Z,94.60
2018-05-02T05:04:15.068Z,94.42
2018-05-02T05:05:15.298Z,94.42
2018-05-02T05:06:15.525Z,94.42
2018-05-02T05:07:15.750Z,94.60
2018-05-02T05:08:15.992Z,94.32
2018-05-02T05:09:16.209Z,93.94
2018-05-02T05:10:16.453Z,94.08
2018-05-02T05:11:16.694Z,93.75
2018-05-02T05:12:16.976Z,93.80
2018-05-02T05:13:17.177Z,93.80
2018-05-02T05:14:17.414Z,93.99
2018-05-02T05:15:17.632Z,93.61
2018-05-02T05:16:17.874Z,93.42
2018-05-02T05:17:18.111Z,93.80
2018-05-02T05:18:18.348Z,93.23
2018-05-02T05:19:18.589Z,93.23
2018-05-02T05:20:18.954Z,92.66
2018-05-02T05:21:19.198Z,92.38
2018-05-02T05:22:19.424Z,91.90
2018-05-02T05:23:19.735Z,92.19
2018-05-02T05:24:19.973Z,91.43
2018-05-02T05:25:20.191Z,91.33
2018-05-02T05:26:20.424Z,91.62
2018-05-02T05:27:20.662Z,92.23
2018-05-02T05:28:20.934Z,91.28
2018-05-02T05:29:21.115Z,90.24
2018-05-02T05:30:21.352Z,90.81
2018-05-02T05:31:21.590Z,90.53
2018-05-02T05:32:21.825Z,90.91
2018-05-02T05:33:22.076Z,90.15
2018-05-02T05:34:22.316Z,90.34
2018-05-02T05:35:22.627Z,89.77
2018-05-02T05:36:22.793Z,88.82
2018-05-02T05:37:23.042Z,88.06
2018-05-02T05:38:23.279Z,87.54
2018-05-02T05:39:23.514Z,87.06
2018-05-02T05:40:23.811Z,87.63
2018-05-02T05:41:24.081Z,88.01
2018-05-02T05:42:24.306Z,87.63
2018-05-02T05:43:24.544Z,87.63
2018-05-02T05:44:24.782Z,87.35
2018-05-02T05:45:25.014Z,86.68
2018-05-02T05:46:25.252Z,86.21
2018-05-02T05:47:25.489Z,86.59
2018-05-02T05:48:25.732Z,86.30
2018-05-02T05:49:26.016Z,85.64
2018-05-02T05:50:26.248Z,85.07
2018-05-02T05:51:26.494Z,84.88
2018-05-02T05:52:26.729Z,84.98
2018-05-02T05:53:26.966Z,84.88
2018-05-02T05:54:27.241Z,84.78
2018-05-02T05:55:27.449Z,85.07
2018-05-02T05:56:27.687Z,84.88
2018-05-02T05:57:27.924Z,85.02
2018-05-02T05:58:28.161Z,85.40
2018-05-02T05:59:28.398Z,85.40
2018-05-02T06:00:28.636Z,84.74
2018-05-02T06:01:28.875Z,84.45
2018-05-02T06:02:29.118Z,84.17
2018-05-02T06:03:29.355Z,83.69
2018-05-02T06:04:29.593Z,84.45
2018-05-02T06:05:29.834Z,85.21
2018-05-02T06:06:30.081Z,85.40
2018-05-02T06:07:30.313Z,84.55
2018-05-02T06:08:30.550Z,83.69
2018-05-02T06:09:30.789Z,82.97
2018-05-02T06:10:31.026Z,83.07
2018-05-02T06:11:31.271Z,82.88
2018-05-02T06:12:31.507Z,82.40
2018-05-02T06:13:31.746Z,82.03
2018-05-02T06:14:31.990Z,81.55
2018-05-02T06:15:32.224Z,81.26
2018-05-02T06:16:32.462Z,81.17
2018-05-02T06:17:32.700Z,81.84
2018-05-02T06:18:32.934Z,81.74
2018-05-02T06:19:33.173Z,82.54
2018-05-02T06:20:33.413Z,81.59
2018-05-02T06:21:33.656Z,80.93
2018-05-02T06:22:33.890Z,80.64
2018-05-02T06:23:34.128Z,80.55
2018-05-02T06:24:34.367Z,80.64
2018-05-02T06:25:34.604Z,80.40
2018-05-02T06:26:34.842Z,79.54
2018-05-02T06:27:35.080Z,79.16
2018-05-02T06:28:35.320Z,78.78
2018-05-02T06:29:35.559Z,77.73
2018-05-02T06:30:35.798Z,76.21
2018-05-02T06:31:36.108Z,76.31
2018-05-02T06:32:36.283Z,75.74
2018-05-02T06:33:36.516Z,76.59
2018-05-02T06:34:36.754Z,76.44
2018-05-02T06:35:36.991Z,75.96
2018-05-02T06:36:37.231Z,74.63
2018-05-02T06:37:37.485Z,73.30
2018-05-02T06:38:37.708Z,72.58
2018-05-02T06:39:37.948Z,72.20
2018-05-02T06:40:38.188Z,72.20
2018-05-02T06:41:38.432Z,71.91
2018-05-02T06:42:38.668Z,71.86
2018-05-02T06:43:38.914Z,70.90
2018-05-02T06:44:39.153Z,71.00
2018-05-02T06:45:39.383Z,70.14
2018-05-02T06:46:39.617Z,69.95
2018-05-02T06:47:39.856Z,69.85
2018-05-02T06:48:40.101Z,70.33
2018-05-02T06:49:40.337Z,69.95
2018-05-02T06:50:40.576Z,69.70
2018-05-02T06:51:40.818Z,68.18
2018-05-02T06:52:41.056Z,66.46
2018-05-02T06:53:41.299Z,66.02
2018-05-02T06:54:41.546Z,65.73
2018-05-02T06:55:41.783Z,65.26
2018-05-02T06:56:42.027Z,64.81
2018-05-02T06:57:42.268Z,64.53
2018-05-02T06:58:42.509Z,64.24
2018-05-02T06:59:42.750Z,63.32
2018-05-02T07:00:42.988Z,61.99
2018-05-02T07:01:43.230Z,61.70
2018-05-02T07:02:43.467Z,62.84
2018-05-02T07:03:43.707Z,62.84
2018-05-02T07:04:43.943Z,63.60
2018-05-02T07:05:44.184Z,61.80
2018-05-02T07:06:44.427Z,60.94
2018-05-02T07:07:44.671Z,60.49
2018-05-02T07:08:44.913Z,61.25
2018-05-02T07:09:45.160Z,60.33
2018-05-02T07:10:45.406Z,58.70
2018-05-02T07:11:45.639Z,58.80
2018-05-02T07:12:45.879Z,57.50
2018-05-02T07:13:46.122Z,56.82
2018-05-02T07:14:46.364Z,57.78
2018-05-02T07:15:46.596Z,57.21
2018-05-02T07:16:46.839Z,56.67
2018-05-02T07:17:47.081Z,57.04
2018-05-02T07:18:47.325Z,57.43
2018-05-02T07:19:47.572Z,55.64
2018-05-02T07:20:47.816Z,53.28
2018-05-02T07:21:48.060Z,53.06
2018-05-02T07:22:48.309Z,53.94
2018-05-02T07:23:48.552Z,53.56
2018-05-02T07:24:48.802Z,54.02
2018-05-02T07:25:49.040Z,54.14
2018-05-02T07:26:49.282Z,54.68
2018-05-02T07:27:49.524Z,54.23
2018-05-02T07:28:49.769Z,52.63
2018-05-02T07:29:50.010Z,52.28
2018-05-02T07:30:50.255Z,51.61
2018-05-02T07:31:50.501Z,51.61
2018-05-02T07:32:50.869Z,51.68
2018-05-02T07:33:50.995Z,51.87
2018-05-02T07:34:51.242Z,50.52
2018-05-02T07:35:51.489Z,50.62
2018-05-02T07:36:51.738Z,49.43
2018-05-02T07:37:51.981Z,48.38
2018-05-02T07:38:52.224Z,49.43
2018-05-02T07:39:52.470Z,50.20
2018-05-02T07:40:52.716Z,50.36
2018-05-02T07:41:52.961Z,49.69
2018-05-02T07:42:53.208Z,49.66
2018-05-02T07:43:53.447Z,50.65
2018-05-02T07:44:53.697Z,51.58
2018-05-02T07:45:53.941Z,51.39
2018-05-02T07:46:54.192Z,51.87
2018-05-02T07:47:54.434Z,51.68
2018-05-02T07:48:54.680Z,50.67
2018-05-02T07:49:54.925Z,49.88
2018-05-02T07:50:55.170Z,50.70
2018-05-02T07:51:55.418Z,50.29
2018-05-02T07:52:55.663Z,51.44
2018-05-02T07:53:55.911Z,50.56
2018-05-02T07:54:56.159Z,50.17
2018-05-02T07:55:56.406Z,51.13
2018-05-02T07:56:56.659Z,51.68
2018-05-02T07:57:56.928Z,51.48
2018-05-02T07:58:57.148Z,53.30
2018-05-02T07:59:57.394Z,52.89
2018-05-02T08:00:57.643Z,53.97
2018-05-02T08:01:57.892Z,53.30
2018-05-02T08:02:58.141Z,53.97
2018-05-02T08:03:58.387Z,54.26
2018-05-02T08:04:58.635Z,52.47
2018-05-02T08:05:58.879Z,53.62
2018-05-02T08:06:59.130Z,53.33
2018-05-02T08:07:59.375Z,53.16
2018-05-02T08:08:59.624Z,52.62
2018-05-02T08:09:59.870Z,49.74
2018-05-02T08:11:00.139Z,48.97
2018-05-02T08:12:00.365Z,49.55
2018-05-02T08:13:00.612Z,49.43
2018-05-02T08:14:00.857Z,49.62
2018-05-02T08:15:01.108Z,49.84
2018-05-02T08:16:01.353Z,49.55
2018-05-02T08:17:01.606Z,49.38
2018-05-02T08:18:01.852Z,48.90
2018-05-02T08:19:02.095Z,46.74
2018-05-02T08:20:02.346Z,45.40
2018-05-02T08:21:02.591Z,45.52
2018-05-02T08:22:02.850Z,44.27
2018-05-02T08:23:03.088Z,45.18
2018-05-02T08:24:03.335Z,44.80
2018-05-02T08:25:03.581Z,44.20
2018-05-02T08:26:03.832Z,43.94
2018-05-02T08:27:04.079Z,44.84
2018-05-02T08:28:04.327Z,43.33
2018-05-02T08:29:04.573Z,41.43
2018-05-02T08:30:04.818Z,39.58
2018-05-02T08:31:05.069Z,40.33
2018-05-02T08:32:05.315Z,41.39
2018-05-02T08:33:05.568Z,41.87
2018-05-02T08:34:05.813Z,42.44
2018-05-02T08:35:06.063Z,41.96
2018-05-02T08:36:06.309Z,41.31
2018-05-02T08:37:06.561Z,41.74
2018-05-02T08:38:06.809Z,40.30
2018-05-02T08:39:07.063Z,40.58
2018-05-02T08:40:07.317Z,39.93
2018-05-02T08:41:07.559Z,39.53
2018-05-02T08:42:07.811Z,39.53
2018-05-02T08:43:08.059Z,38.95
2018-05-02T08:44:08.307Z,39.31
2018-05-02T08:45:08.558Z,39.29
2018-05-02T08:46:08.809Z,40.45
2018-05-02T08:47:09.062Z,40.93
2018-05-02T08:48:09.313Z,41.05
2018-05-02T08:49:09.560Z,40.56
2018-05-02T08:50:09.816Z,39.81
2018-05-02T08:51:10.065Z,39.24
2018-05-02T08:52:10.316Z,38.85
2018-05-02T08:53:10.565Z,37.32
2018-05-02T08:54:10.812Z,38.85
2018-05-02T08:55:11.061Z,39.14
2018-05-02T08:56:11.314Z,40.30
2018-05-02T08:57:11.566Z,38.76
2018-05-02T08:58:11.832Z,39.79
2018-05-02T08:59:12.065Z,39.74
2018-05-02T09:00:12.317Z,38.28
2018-05-02T09:01:12.570Z,37.51
2018-05-02T09:02:12.817Z,37.14
2018-05-02T09:03:13.067Z,36.85
2018-05-02T09:04:13.318Z,38.09
2018-05-02T09:05:13.568Z,36.35
2018-05-02T09:06:13.820Z,36.45
2018-05-02T09:07:14.077Z,36.47
2018-05-02T09:08:14.325Z,36.25
2018-05-02T09:09:14.573Z,34.92
2018-05-02T09:10:14.823Z,35.31
2018-05-02T09:11:15.075Z,36.37
2018-05-02T09:12:15.327Z,39.93
2018-05-02T09:13:15.573Z,40.90
2018-05-02T09:14:15.825Z,42.41
2018-05-02T09:15:16.079Z,44.54
2018-05-02T09:16:16.328Z,43.44
2018-05-02T09:17:16.580Z,41.67
2018-05-02T09:18:16.831Z,39.68
2018-05-02T09:19:17.081Z,39.76
2018-05-02T09:20:17.332Z,39.37
2018-05-02T09:21:17.587Z,40.29
2018-05-02T09:22:17.836Z,40.29
2018-05-02T09:23:18.084Z,41.63
2018-05-02T09:24:18.331Z,42.19
2018-05-02T09:25:18.578Z,41.44
2018-05-02T09:26:18.831Z,41.54
2018-05-02T09:27:19.079Z,41.90
2018-05-02T09:28:19.326Z,43.23
2018-05-02T09:29:19.578Z,44.09
2018-05-02T09:30:19.826Z,44.26
2018-05-02T09:31:20.075Z,45.09
2018-05-02T09:32:20.321Z,45.48
2018-05-02T09:33:20.571Z,44.16
2018-05-02T09:34:20.820Z,43.49
2018-05-02T09:35:21.068Z,43.32
2018-05-02T09:36:21.317Z,43.03
2018-05-02T09:37:21.567Z,43.07
2018-05-02T09:38:21.813Z,41.94
2018-05-02T09:39:22.062Z,41.00
2018-05-02T09:40:22.315Z,40.55
2018-05-02T09:41:22.565Z,40.06
2018-05-02T09:42:22.812Z,39.11
2018-05-02T09:43:23.062Z,38.14
2018-05-02T09:44:23.309Z,38.62
2018-05-02T09:45:23.554Z,40.23
2018-05-02T09:46:23.805Z,41.22
2018-05-02T09:47:24.052Z,40.83
2018-05-02T09:48:24.305Z,39.39
2018-05-02T09:49:24.552Z,39.11
2018-05-02T09:50:24.802Z,38.81
2018-05-02T09:51:25.054Z,38.22
2018-05-02T09:52:25.303Z,37.45
2018-05-02T09:53:25.554Z,38.12
2018-05-02T09:54:25.805Z,38.99
2018-05-02T09:55:26.050Z,40.64
2018-05-02T09:56:26.299Z,39.39
2018-05-02T09:57:26.548Z,37.95
2018-05-02T09:58:26.797Z,39.18
2018-05-02T09:59:27.045Z,40.89
2018-05-02T10:00:27.295Z,41.10
2018-05-02T10:01:27.543Z,40.64
2018-05-02T10:02:27.796Z,39.89
2018-05-02T10:03:28.043Z,37.60
2018-05-02T10:04:28.376Z,36.39
2018-05-02T10:05:28.543Z,35.16
2018-05-02T10:06:28.788Z,36.31
2018-05-02T10:07:29.043Z,37.24
2018-05-02T10:08:29.293Z,37.89
2018-05-02T10:09:29.535Z,38.74
2018-05-02T10:10:29.793Z,39.49
2018-05-02T10:11:30.045Z,39.61
2018-05-02T10:12:30.352Z,38.35
2018-05-02T10:13:30.541Z,38.47
2018-05-02T10:14:30.790Z,36.64
2018-05-02T10:15:31.040Z,36.74
2018-05-02T10:16:31.295Z,36.53
2018-05-02T10:17:31.541Z,36.83
2018-05-02T10:18:31.805Z,36.54
2018-05-02T10:19:32.041Z,36.45
2018-05-02T10:20:32.293Z,36.25
2018-05-02T10:21:32.543Z,35.97
2018-05-02T10:22:32.792Z,36.45
2018-05-02T10:23:33.043Z,37.30
2018-05-02T10:24:33.292Z,35.85
2018-05-02T10:25:33.541Z,36.60
2018-05-02T10:26:33.793Z,36.72
2018-05-02T10:27:34.042Z,37.37
2018-05-02T10:28:34.295Z,35.66
2018-05-02T10:29:34.550Z,34.68
2018-05-02T10:30:34.795Z,36.58
2018-05-02T10:31:35.044Z,37.16
2018-05-02T10:32:35.296Z,38.99
2018-05-02T10:33:35.550Z,40.05
2018-05-02T10:34:35.798Z,38.02
2018-05-02T10:35:36.051Z,37.57
2018-05-02T10:36:36.300Z,36.41
2018-05-02T10:37:36.547Z,36.99
2018-05-02T10:38:36.792Z,36.60
2018-05-02T10:39:37.048Z,37.66
2018-05-02T10:40:37.302Z,37.87
2018-05-02T10:41:37.550Z,36.07
2018-05-02T10:42:37.807Z,35.08
2018-05-02T10:43:38.052Z,36.07
2018-05-02T10:44:38.305Z,34.43
2018-05-02T10:45:38.555Z,33.75
2018-05-02T10:46:38.803Z,35.00
2018-05-02T10:47:39.052Z,33.28
2018-05-02T10:48:39.306Z,33.07
2018-05-02T10:49:39.557Z,32.68
2018-05-02T10:50:39.806Z,33.54
2018-05-02T10:51:40.056Z,33.36
2018-05-02T10:52:40.305Z,33.26
2018-05-02T10:53:40.555Z,32.68
2018-05-02T10:54:40.800Z,32.87
2018-05-02T10:55:41.050Z,33.47
2018-05-02T10:56:41.305Z,33.95
2018-05-02T10:57:41.550Z,33.47
2018-05-02T10:58:41.799Z,33.00
2018-05-02T10:59:42.048Z,33.10
2018-05-02T11:00:42.299Z,33.29
2018-05-02T11:01:42.549Z,31.75
2018-05-02T11:02:42.799Z,31.85
2018-05-02T11:03:43.048Z,31.27
2018-05-02T11:04:43.301Z,31.65
2018-05-02T11:05:43.553Z,32.04
2018-05-02T11:06:43.807Z,33.77
2018-05-02T11:07:44.053Z,33.77
2018-05-02T11:08:44.305Z,33.39
2018-05-02T11:09:44.559Z,32.90
2018-05-02T11:10:44.805Z,32.54
2018-05-02T11:11:45.055Z,30.88
2018-05-02T11:12:45.310Z,31.00
2018-05-02T11:13:45.559Z,33.48
2018-05-02T11:14:45.808Z,34.31
2018-05-02T11:15:46.056Z,35.72
2018-05-02T11:16:46.305Z,36.49
2018-05-02T11:17:46.556Z,35.32
2018-05-02T11:18:46.805Z,36.49
2018-05-02T11:19:47.052Z,37.35
2018-05-02T11:20:47.309Z,36.58
2018-05-02T11:21:47.558Z,34.28
2018-05-02T11:22:47.809Z,31.69
2018-05-02T11:23:48.056Z,30.44
2018-05-02T11:24:48.320Z,29.27
2018-05-02T11:25:48.552Z,32.36
2018-05-02T11:26:48.801Z,36.49
2018-05-02T11:27:49.056Z,36.68
2018-05-02T11:28:49.304Z,37.74
2018-05-02T11:29:49.560Z,38.51
2018-05-02T11:30:49.803Z,39.93
2018-05-02T11:31:50.057Z,37.82
2018-05-02T11:32:50.306Z,37.60
2018-05-02T11:33:50.553Z,37.87
2018-05-02T11:34:50.804Z,42.67
2018-05-02T11:35:51.051Z,41.54
2018-05-02T11:36:51.299Z,38.20
2018-05-02T11:37:51.547Z,36.58
2018-05-02T11:38:51.796Z,36.88
2018-05-02T11:39:52.045Z,36.58
2018-05-02T11:40:52.295Z,39.76
2018-05-02T11:41:52.545Z,40.14
2018-05-02T11:42:52.792Z,39.47
2018-05-02T11:43:53.039Z,41.85
2018-05-02T11:44:53.291Z,41.46
2018-05-02T11:45:53.536Z,41.17
2018-05-02T11:46:53.786Z,40.50
2018-05-02T11:47:54.033Z,42.61
2018-05-02T11:48:54.285Z,42.23
2018-05-02T11:49:54.534Z,42.71
2018-05-02T11:50:54.783Z,40.62
2018-05-02T11:51:55.037Z,39.83
2018-05-02T11:52:55.282Z,41.17
2018-05-02T11:53:55.530Z,43.10
2018-05-02T11:54:55.775Z,41.94
2018-05-02T11:55:56.024Z,41.66
2018-05-02T11:56:56.270Z,41.17
2018-05-02T11:57:56.520Z,41.85
2018-05-02T11:58:56.856Z,41.83
2018-05-02T11:59:57.022Z,42.04
2018-05-02T12:00:57.273Z,41.85
2018-05-02T12:01:57.525Z,40.89
2018-05-02T12:02:57.776Z,42.25
2018-05-02T12:03:58.026Z,40.64
2018-05-02T12:04:58.275Z,39.85
2018-05-02T12:05:58.526Z,40.83
2018-05-02T12:06:58.776Z,40.81
2018-05-02T12:07:59.026Z,40.23
2018-05-02T12:08:59.274Z,38.89
2018-05-02T12:09:59.522Z,40.70
2018-05-02T12:10:59.772Z,41.77
2018-05-02T12:12:00.029Z,39.47
2018-05-02T12:13:00.270Z,39.49
2018-05-02T12:14:00.522Z,38.84
2018-05-02T12:15:00.773Z,41.12
2018-05-02T12:16:01.102Z,39.79
2018-05-02T12:17:01.271Z,38.37
2018-05-02T12:18:01.518Z,37.04
2018-05-02T12:19:01.769Z,37.26
2018-05-02T12:20:02.017Z,36.11
2018-05-02T12:21:02.272Z,35.73
2018-05-02T12:22:02.517Z,35.08
2018-05-02T12:23:02.761Z,34.59
2018-05-02T12:24:03.014Z,34.80
2018-05-02T12:25:03.265Z,33.76
2018-05-02T12:26:03.515Z,34.92
2018-05-02T12:27:03.769Z,35.38
2018-05-02T12:28:04.018Z,35.08
2018-05-02T12:29:04.268Z,36.61
2018-05-02T12:30:04.521Z,36.04
2018-05-02T12:31:04.775Z,36.23
2018-05-02T12:32:05.023Z,35.16
2018-05-02T12:33:05.273Z,35.44
2018-05-02T12:34:05.552Z,35.06
2018-05-02T12:35:05.776Z,36.39
2018-05-02T12:36:06.027Z,37.91
2018-05-02T12:37:06.278Z,37.04
2018-05-02T12:38:06.530Z,38.47
2018-05-02T12:39:06.779Z,39.06
2018-05-02T12:40:07.030Z,38.39
2018-05-02T12:41:07.282Z,38.47
2018-05-02T12:42:07.534Z,38.97
2018-05-02T12:43:07.783Z,38.87
2018-05-02T12:44:08.035Z,36.68
2018-05-02T12:45:08.289Z,36.77
2018-05-02T12:46:08.537Z,37.72
2018-05-02T12:47:08.794Z,36.66
2018-05-02T12:48:09.041Z,37.43
2018-05-02T12:49:09.291Z,35.42
2018-05-02T12:50:09.542Z,35.24
2018-05-02T12:51:09.791Z,36.68
2018-05-02T12:52:10.043Z,35.89
2018-05-02T12:53:10.293Z,36.56
2018-05-02T12:54:10.544Z,36.18
2018-05-02T12:55:10.794Z,35.79
2018-05-02T12:56:11.075Z,36.56